createdAt,value
2022-12-31T06:02:09.514Z,99826.80
2022-12-31T06:04:36.783Z,99823.80
2022-12-31T06:07:03.920Z,99835.00
2022-12-31T06:09:31.262Z,99832.80
2022-12-31T06:11:58.723Z,99831.00
2022-12-31T06:14:26.180Z,99828.60
2022-12-31T06:16:53.551Z,99821.60
2022-12-31T06:19:20.929Z,99819.60
2022-12-31T06:21:48.569Z,99829.80
2022-12-31T06:24:15.889Z,99835.00
2022-12-31T06:26:43.432Z,99846.20
2022-12-31T06:29:10.902Z,99846.00
2022-12-31T06:31:38.269Z,99847.40
2022-12-31T06:34:05.547Z,99849.20
2022-12-31T06:36:32.981Z,99842.20
2022-12-31T06:39:01.987Z,99838.80
2022-12-31T06:41:29.327Z,99851.20
2022-12-31T06:43:56.665Z,99827.40
2022-12-31T06:46:24.024Z,99838.40
2022-12-31T06:48:51.297Z,99833.80
2022-12-31T06:51:21.212Z,99830.40
2022-12-31T06:53:51.903Z,99837.40
2022-12-31T06:56:33.043Z,99841.20
2022-12-31T06:59:03.953Z,99849.80
2022-12-31T07:02:05.610Z,99847.20
2022-12-31T07:05:14.397Z,99851.60
2022-12-31T07:08:11.923Z,99858.60
2022-12-31T07:11:12.819Z,99856.20
2022-12-31T07:14:13.993Z,99853.20
2022-12-31T07:16:47.453Z,99860.00
2022-12-31T07:19:35.137Z,99868.60
2022-12-31T07:22:03.897Z,99863.00
2022-12-31T07:24:31.733Z,99851.60
2022-12-31T07:27:50.253Z,99855.80
2022-12-31T07:30:32.542Z,99850.60
2022-12-31T07:33:36.656Z,99863.20
2022-12-31T07:36:07.237Z,99877.80
2022-12-31T07:38:55.593Z,99874.60
2022-12-31T07:41:58.914Z,99866.80
2022-12-31T07:44:48.687Z,99875.60
2022-12-31T07:47:27.366Z,99877.00
2022-12-31T07:49:57.082Z,99863.60
2022-12-31T07:52:25.823Z,99861.20
2022-12-31T07:54:53.152Z,99874.60
2022-12-31T07:57:26.495Z,99879.40
2022-12-31T08:00:02.791Z,99886.60
2022-12-31T08:02:48.167Z,99890.00
2022-12-31T08:05:38.534Z,99888.00
2022-12-31T08:08:41.204Z,99892.00
2022-12-31T08:11:15.493Z,99891.00
2022-12-31T08:13:43.566Z,99890.20
2022-12-31T08:16:12.738Z,99882.40
2022-12-31T08:18:41.058Z,99878.40
2022-12-31T08:21:32.755Z,99873.00
2022-12-31T08:24:20.416Z,99871.80
2022-12-31T08:27:04.795Z,99883.00
2022-12-31T08:30:07.793Z,99887.20
2022-12-31T08:33:07.176Z,99883.60
2022-12-31T08:35:52.524Z,99890.00
2022-12-31T08:38:46.753Z,99879.00
2022-12-31T08:41:29.640Z,99885.40
2022-12-31T08:44:09.977Z,99867.80
2022-12-31T08:46:52.593Z,99880.40
2022-12-31T08:49:20.430Z,99876.80
2022-12-31T08:51:48.395Z,99872.60
2022-12-31T08:54:16.177Z,99864.80
2022-12-31T08:56:56.333Z,99859.60
2022-12-31T08:59:46.987Z,99851.40
2022-12-31T09:02:32.822Z,99859.80
2022-12-31T09:05:32.820Z,99843.20
2022-12-31T09:08:22.923Z,99844.20
2022-12-31T09:11:23.620Z,99847.00
2022-12-31T09:14:03.858Z,99857.00
2022-12-31T09:17:01.532Z,99864.80
2022-12-31T09:19:28.873Z,99869.20
2022-12-31T09:21:56.649Z,99872.40
2022-12-31T09:24:24.357Z,99868.60
2022-12-31T09:27:12.831Z,99870.00
2022-12-31T09:30:06.351Z,99871.00
2022-12-31T09:33:25.849Z,99872.00
2022-12-31T09:35:58.135Z,99868.20
2022-12-31T09:38:37.492Z,99866.20
2022-12-31T09:41:41.213Z,99862.80
2022-12-31T09:45:00.452Z,99866.60
2022-12-31T09:48:34.069Z,99874.00
2022-12-31T09:51:30.873Z,99864.20
2022-12-31T09:54:09.697Z,99863.80
2022-12-31T09:56:47.977Z,99864.40
2022-12-31T09:59:26.480Z,99864.80
2022-12-31T10:02:01.973Z,99862.40
2022-12-31T10:05:02.055Z,99856.40
2022-12-31T10:07:53.591Z,99854.60
2022-12-31T10:10:29.933Z,99849.60
2022-12-31T10:13:09.010Z,99849.60
2022-12-31T10:15:48.113Z,99845.80
2022-12-31T10:18:51.737Z,99850.80
2022-12-31T10:21:48.193Z,99845.60
2022-12-31T10:24:52.493Z,99846.00
2022-12-31T10:27:43.061Z,99848.60
2022-12-31T10:30:24.364Z,99840.40
2022-12-31T10:33:29.708Z,99841.00
2022-12-31T10:36:27.424Z,99833.40
2022-12-31T10:40:06.113Z,99828.80
2022-12-31T10:42:36.474Z,99826.40
2022-12-31T10:45:51.231Z,99831.60
2022-12-31T10:48:33.618Z,99830.20
2022-12-31T10:51:27.971Z,99830.20
2022-12-31T10:54:33.032Z,99829.60
2022-12-31T10:57:49.853Z,99827.20
2022-12-31T11:00:19.257Z,99837.80
2022-12-31T11:03:29.324Z,99834.40
2022-12-31T11:06:47.061Z,99825.00
2022-12-31T11:09:41.736Z,99830.80
2022-12-31T11:12:39.713Z,99837.80
2022-12-31T11:15:22.081Z,99831.40
2022-12-31T11:18:29.069Z,99823.80
2022-12-31T11:21:20.552Z,99819.80
2022-12-31T11:24:18.057Z,99819.20
2022-12-31T11:27:37.147Z,99812.60
2022-12-31T11:30:48.041Z,99805.60
2022-12-31T11:33:30.707Z,99803.00
2022-12-31T11:36:19.013Z,99802.60
2022-12-31T11:39:01.088Z,99796.00
2022-12-31T11:41:44.742Z,99796.80
2022-12-31T11:44:54.812Z,99796.00
2022-12-31T11:48:20.121Z,99800.00
2022-12-31T11:51:05.539Z,99796.40
2022-12-31T11:54:03.336Z,99794.20
2022-12-31T11:56:58.126Z,99801.40
2022-12-31T11:59:27.368Z,99801.20
2022-12-31T12:02:16.347Z,99799.20
2022-12-31T12:04:48.107Z,99798.60
2022-12-31T12:07:17.561Z,99798.40
2022-12-31T12:09:46.507Z,99794.40
2022-12-31T12:12:15.226Z,99789.40
2022-12-31T12:14:46.672Z,99789.20
2022-12-31T12:17:26.356Z,99790.20
2022-12-31T12:19:56.717Z,99776.80
2022-12-31T12:22:27.153Z,99791.00
2022-12-31T12:25:15.707Z,99795.00
2022-12-31T12:27:43.273Z,99797.40
2022-12-31T12:30:18.290Z,99795.40
2022-12-31T12:32:56.013Z,99810.20
2022-12-31T12:35:31.532Z,99809.60
2022-12-31T12:38:13.371Z,99811.60
2022-12-31T12:40:41.673Z,99802.40
2022-12-31T12:43:32.580Z,99805.80
2022-12-31T12:46:05.891Z,99806.60
2022-12-31T12:48:45.834Z,99810.20
2022-12-31T12:51:32.595Z,99814.60
2022-12-31T12:55:00.018Z,99807.20
2022-12-31T12:58:02.692Z,99809.40
2022-12-31T13:01:37.459Z,99807.20
2022-12-31T13:04:35.793Z,99812.60
2022-12-31T13:07:56.226Z,99823.20
2022-12-31T13:10:58.054Z,99825.40
2022-12-31T13:13:55.799Z,99821.80
2022-12-31T13:17:01.376Z,99820.60
2022-12-31T13:19:38.334Z,99815.20
2022-12-31T13:22:35.473Z,99810.60
2022-12-31T13:25:11.746Z,99810.60
2022-12-31T13:27:45.971Z,99821.40
2022-12-31T13:30:32.594Z,99826.80
2022-12-31T13:33:33.073Z,99825.60
2022-12-31T13:36:07.562Z,99831.80
2022-12-31T13:38:45.730Z,99837.60
2022-12-31T13:41:41.776Z,99841.20
2022-12-31T13:44:53.947Z,99829.40
2022-12-31T13:47:45.173Z,99839.80
2022-12-31T13:50:29.647Z,99846.80
2022-12-31T13:53:05.576Z,99837.00
2022-12-31T13:55:41.803Z,99840.20
2022-12-31T13:58:27.616Z,99840.20
2022-12-31T14:01:19.093Z,99847.80
2022-12-31T14:04:36.852Z,99838.20
2022-12-31T14:07:16.522Z,99850.40
2022-12-31T14:09:46.079Z,99851.00
2022-12-31T14:12:41.793Z,99858.00
2022-12-31T14:15:41.312Z,99859.60
2022-12-31T14:19:01.258Z,99861.20
2022-12-31T14:21:44.863Z,99862.60
2022-12-31T14:24:21.103Z,99869.20
2022-12-31T14:26:57.723Z,99874.60
2022-12-31T14:29:51.490Z,99871.00
2022-12-31T14:32:31.892Z,99868.80
2022-12-31T14:35:55.212Z,99873.80
2022-12-31T14:38:53.514Z,99881.60
2022-12-31T14:42:23.180Z,99879.00
2022-12-31T14:45:18.152Z,99879.60
2022-12-31T14:47:56.828Z,99879.80
2022-12-31T14:50:29.787Z,99878.60
2022-12-31T14:53:00.716Z,99869.60
2022-12-31T14:55:43.045Z,99873.00
2022-12-31T14:58:38.797Z,99874.00
2022-12-31T15:01:22.589Z,99874.00
2022-12-31T15:03:57.467Z,99869.00
2022-12-31T15:06:37.659Z,99877.60
2022-12-31T15:09:33.334Z,99871.60
2022-12-31T15:12:29.053Z,99865.80
2022-12-31T15:15:33.017Z,99872.40
2022-12-31T15:18:53.540Z,99880.40
2022-12-31T15:22:13.752Z,99867.20
2022-12-31T15:24:47.899Z,99862.00
2022-12-31T15:27:42.507Z,99858.40
2022-12-31T15:30:35.060Z,99860.80
2022-12-31T15:33:08.760Z,99865.00
2022-12-31T15:35:55.727Z,99872.80
2022-12-31T15:38:40.315Z,99878.60
2022-12-31T15:41:19.914Z,99885.40
2022-12-31T15:49:20.817Z,99898.60
2022-12-31T15:52:21.283Z,99901.80
2022-12-31T15:54:58.337Z,99908.00
2022-12-31T15:57:40.981Z,99898.40
2022-12-31T16:00:23.610Z,99903.80
2022-12-31T16:02:56.629Z,99917.60
2022-12-31T16:05:28.816Z,99919.80
2022-12-31T16:07:59.981Z,99915.00
2022-12-31T16:10:32.558Z,99922.60
2022-12-31T16:13:01.706Z,99928.00
2022-12-31T16:15:34.740Z,99926.60
2022-12-31T16:18:13.736Z,99930.60
2022-12-31T16:20:49.207Z,99926.80
2022-12-31T16:23:28.204Z,99930.40
2022-12-31T16:26:03.474Z,99935.00
2022-12-31T16:28:35.215Z,99940.40
2022-12-31T16:31:08.781Z,99935.20
2022-12-31T16:33:37.837Z,99940.80
2022-12-31T16:36:07.344Z,99941.00
2022-12-31T16:38:38.283Z,99941.60
2022-12-31T16:41:20.253Z,99940.20
2022-12-31T16:43:51.491Z,99951.60
2022-12-31T16:46:29.221Z,99948.80
2022-12-31T16:49:19.241Z,99951.80
2022-12-31T16:51:49.979Z,99948.80
2022-12-31T16:54:41.177Z,99950.20
2022-12-31T16:57:23.055Z,99956.60
2022-12-31T17:00:01.899Z,99954.20
2022-12-31T17:02:41.075Z,99962.40
2022-12-31T17:05:28.478Z,99964.60
2022-12-31T17:07:57.871Z,99961.60
2022-12-31T17:10:36.818Z,99963.80
2022-12-31T17:13:28.034Z,99970.40
2022-12-31T17:15:59.906Z,99970.60
2022-12-31T17:18:38.505Z,99974.60
2022-12-31T17:21:11.354Z,99973.40
2022-12-31T17:23:42.867Z,99979.00
2022-12-31T17:26:24.372Z,99980.40
2022-12-31T17:28:57.186Z,99985.60
2022-12-31T17:31:42.935Z,99985.80
2022-12-31T17:34:15.626Z,99971.40
2022-12-31T17:37:22.159Z,99979.60
2022-12-31T17:39:54.247Z,99991.80
2022-12-31T17:42:37.481Z,99990.40
2022-12-31T17:45:21.802Z,99989.00
2022-12-31T17:47:54.195Z,99991.60
2022-12-31T17:50:27.178Z,99988.80
2022-12-31T17:53:13.715Z,99995.20
2022-12-31T17:55:48.699Z,100005.20
2022-12-31T17:58:35.120Z,100011.80
2022-12-31T18:01:09.422Z,100010.00
2022-12-31T18:03:39.684Z,100013.00
2022-12-31T18:06:16.525Z,100010.80
2022-12-31T18:08:47.833Z,100014.00
2022-12-31T18:11:22.922Z,100012.00
2022-12-31T18:13:54.725Z,100015.20
2022-12-31T18:16:24.094Z,100020.40
2022-12-31T18:18:53.792Z,100016.20
2022-12-31T18:21:34.604Z,100023.00
2022-12-31T18:26:34.857Z,100027.40
2022-12-31T18:29:18.964Z,100024.00
2022-12-31T18:31:50.463Z,100024.60
2022-12-31T18:34:20.355Z,100020.40
2022-12-31T18:36:49.356Z,100025.20
2022-12-31T18:39:18.383Z,100014.20
2022-12-31T18:41:51.648Z,100013.20
2022-12-31T18:44:20.735Z,100019.20
2022-12-31T18:46:50.721Z,100013.60
2022-12-31T18:49:19.655Z,100013.80
2022-12-31T18:51:53.879Z,100022.40
2022-12-31T18:54:22.856Z,100022.00
2022-12-31T18:56:56.880Z,100011.00
2022-12-31T18:59:26.195Z,99998.80
2022-12-31T19:01:55.858Z,100004.20
2022-12-31T19:04:27.877Z,100007.20
2022-12-31T19:06:57.994Z,100011.20
2022-12-31T19:12:17.144Z,100003.40
2022-12-31T19:14:46.580Z,99999.20
2022-12-31T19:17:15.557Z,100004.80
2022-12-31T19:19:45.843Z,100002.80
2022-12-31T19:22:16.099Z,100012.00
2022-12-31T19:24:46.116Z,100016.20
2022-12-31T19:27:15.785Z,100008.00
2022-12-31T19:29:45.010Z,100004.00
2022-12-31T19:32:13.982Z,100008.40
2022-12-31T19:34:42.795Z,100009.60
2022-12-31T19:37:19.063Z,100004.80
2022-12-31T19:39:49.199Z,100005.60
2022-12-31T19:42:19.138Z,100009.40
2022-12-31T19:44:48.282Z,100012.40
2022-12-31T19:47:17.295Z,100018.80
2022-12-31T19:49:47.667Z,100017.60
2022-12-31T19:52:18.421Z,100016.60
2022-12-31T19:54:48.322Z,100013.40
2022-12-31T19:57:17.379Z,100015.40
2022-12-31T19:59:46.794Z,100023.60
2022-12-31T20:02:15.671Z,100024.40
2022-12-31T20:04:44.660Z,100024.00
2022-12-31T20:07:13.756Z,100027.00
2022-12-31T20:09:42.536Z,100026.60
2022-12-31T20:12:11.329Z,100033.40
2022-12-31T20:14:40.303Z,100036.60
2022-12-31T20:17:09.435Z,100036.80
2022-12-31T20:19:38.817Z,100035.00
2022-12-31T20:22:08.985Z,100030.20
2022-12-31T20:24:38.768Z,100032.00
2022-12-31T20:27:13.498Z,100034.40
2022-12-31T20:29:46.258Z,100035.40
2022-12-31T20:32:15.599Z,100034.80
2022-12-31T20:34:44.603Z,100032.60
2022-12-31T20:37:13.624Z,100034.20
2022-12-31T20:39:43.214Z,100032.40
2022-12-31T20:42:13.411Z,100034.80
2022-12-31T20:44:42.575Z,100042.60
2022-12-31T20:47:12.376Z,100039.20
2022-12-31T20:50:12.169Z,100037.40
2022-12-31T20:52:30.656Z,100039.00
2022-12-31T20:54:59.778Z,100037.20
2022-12-31T20:57:33.371Z,100039.00
2022-12-31T21:00:05.056Z,100034.20
2022-12-31T21:02:42.316Z,100043.20
2022-12-31T21:05:12.237Z,100037.00
2022-12-31T21:07:41.298Z,100034.60
2022-12-31T21:10:10.398Z,100034.00
2022-12-31T21:12:46.977Z,100043.20
2022-12-31T21:15:16.895Z,100036.60
2022-12-31T21:17:46.433Z,100030.00
2022-12-31T21:20:15.898Z,100032.20
2022-12-31T21:22:44.795Z,100034.40
2022-12-31T21:25:13.692Z,100026.20
2022-12-31T21:27:42.587Z,100031.00
2022-12-31T21:30:20.601Z,100029.80
2022-12-31T21:32:49.771Z,100030.00
2022-12-31T21:38:09.500Z,100022.00
2022-12-31T21:40:38.980Z,100026.00
2022-12-31T21:43:08.084Z,100030.60
2022-12-31T21:45:37.068Z,100031.20
2022-12-31T21:48:23.877Z,100024.40
2022-12-31T21:51:04.537Z,100031.60
2022-12-31T21:53:36.939Z,100035.00
2022-12-31T21:56:10.536Z,100031.60
2022-12-31T21:58:45.104Z,100036.40
2022-12-31T22:01:41.311Z,100033.60
2022-12-31T22:04:35.161Z,100036.20
2022-12-31T22:06:59.702Z,100031.00
2022-12-31T22:09:28.579Z,100029.00
2022-12-31T22:11:57.738Z,100027.00
2022-12-31T22:14:26.785Z,100032.00
2022-12-31T22:16:55.515Z,100030.40
2022-12-31T22:19:25.419Z,100037.20
2022-12-31T22:21:54.209Z,100043.40
2022-12-31T22:24:23.096Z,100036.80
2022-12-31T22:26:54.658Z,100046.20
2022-12-31T22:29:26.937Z,100040.60
2022-12-31T22:32:00.968Z,100046.40
2022-12-31T22:34:30.232Z,100043.80
2022-12-31T22:37:08.994Z,100050.40
2022-12-31T22:39:48.576Z,100050.00
2022-12-31T22:42:17.716Z,100050.60
2022-12-31T22:44:47.493Z,100046.40
2022-12-31T22:47:16.520Z,100049.60
2022-12-31T22:49:45.298Z,100051.20
2022-12-31T22:52:14.195Z,100042.80
2022-12-31T22:54:43.157Z,100040.80
2022-12-31T22:57:17.836Z,100039.80
2022-12-31T22:59:50.906Z,100042.60
2022-12-31T23:02:24.115Z,100044.40
2022-12-31T23:04:54.607Z,100050.00
2022-12-31T23:07:44.765Z,100055.20
2022-12-31T23:10:33.376Z,100052.20
2022-12-31T23:13:21.479Z,100051.20
2022-12-31T23:16:09.891Z,100052.60
2022-12-31T23:19:05.062Z,100052.20
2022-12-31T23:22:01.162Z,100042.60
2022-12-31T23:24:39.821Z,100042.20
2022-12-31T23:27:44.672Z,100037.00
2022-12-31T23:30:33.983Z,100033.80
2022-12-31T23:33:10.944Z,100031.00
2022-12-31T23:36:00.779Z,100030.00
2022-12-31T23:38:52.405Z,100027.60
2022-12-31T23:42:03.765Z,100021.80
2022-12-31T23:44:44.995Z,100032.80
2022-12-31T23:47:21.667Z,100032.00
2022-12-31T23:50:07.184Z,100041.60
2022-12-31T23:52:47.727Z,100052.80
2022-12-31T23:55:41.724Z,100055.80
2022-12-31T23:58:29.291Z,100055.60
